Time;durP1;ratioP1;P1;durP2;ratioP2;P2;SDS_P1;SDS_P2;PMS_P1;PMS_P2;Temp;Humidity;BMP_temperature;BMP_pressure;BME280_temperature;BME280_humidity;BME280_pressure;Samples;Min_cycle;Max_cycle;Signal;HPM_P1;HPM_P2
2024/04/17 00:02:24;;;;;;;0.80;0.80;;;;;;;;;;5413622;26;20397;-75
2024/04/17 00:04:52;;;;;;;0.70;0.70;;;;;;;;;;5412213;26;20317;-76
2024/04/17 00:07:18;;;;;;;0.73;0.73;;;;;;;;;;5409416;26;20330;-75
2024/04/17 00:09:46;;;;;;;0.70;0.70;;;;;;;;;;5409051;26;20745;-76
2024/04/17 00:12:11;;;;;;;0.70;0.70;;;;;;;;;;5409084;26;20771;-76
2024/04/17 00:14:42;;;;;;;0.70;0.70;;;;;;;;;;5413133;26;21359;-76
2024/04/17 00:17:07;;;;;;;0.70;0.70;;;;;;;;;;5411591;26;20628;-75
2024/04/17 00:19:35;;;;;;;0.70;0.70;;;;;;;;;;5409852;26;20241;-75
2024/04/17 00:22:01;;;;;;;0.70;0.70;;;;;;;;;;5407362;26;20302;-75
2024/04/17 00:24:29;;;;;;;0.70;0.70;;;;;;;;;;5408712;26;20889;-76
2024/04/17 00:26:54;;;;;;;0.68;0.68;;;;;;;;;;5411194;26;20318;-76
2024/04/17 00:29:22;;;;;;;0.70;0.70;;;;;;;;;;5411420;26;20767;-76
2024/04/17 00:31:51;;;;;;;0.60;0.60;;;;;;;;;;5409640;26;20337;-76
2024/04/17 00:34:19;;;;;;;0.80;0.80;;;;;;;;;;5411556;26;20294;-76
2024/04/17 00:36:44;;;;;;;0.60;0.60;;;;;;;;;;5411625;26;20799;-76
2024/04/17 00:39:12;;;;;;;0.70;0.70;;;;;;;;;;5410563;26;20291;-76
2024/04/17 00:41:37;;;;;;;0.70;0.70;;;;;;;;;;5414087;26;21572;-76
2024/04/17 00:44:05;;;;;;;0.70;0.70;;;;;;;;;;5412040;26;20239;-76
2024/04/17 00:46:31;;;;;;;0.70;0.70;;;;;;;;;;5412462;26;20599;-76
2024/04/17 00:49:01;;;;;;;0.70;0.70;;;;;;;;;;5422745;26;20244;-75
2024/04/17 00:51:27;;;;;;;0.65;0.65;;;;;;;;;;5414822;26;20298;-75
2024/04/17 00:53:55;;;;;;;0.70;0.70;;;;;;;;;;5414288;26;20247;-75
2024/04/17 00:56:21;;;;;;;0.60;0.60;;;;;;;;;;5418238;26;20740;-76
2024/04/17 00:58:49;;;;;;;0.70;0.70;;;;;;;;;;5417393;26;20320;-76
2024/04/17 01:01:14;;;;;;;0.68;0.68;;;;;;;;;;5416916;26;20278;-75
2024/04/17 01:03:42;;;;;;;0.65;0.65;;;;;;;;;;5414577;26;20277;-75
2024/04/17 01:06:10;;;;;;;0.70;0.70;;;;;;;;;;5414381;26;20286;-75
2024/04/17 01:08:39;;;;;;;0.70;0.70;;;;;;;;;;5412071;26;20243;-76
2024/04/17 01:11:05;;;;;;;0.60;0.60;;;;;;;;;;5415622;26;20968;-75
2024/04/17 01:13:33;;;;;;;0.70;0.70;;;;;;;;;;5413687;26;20240;-76
2024/04/17 01:15:58;;;;;;;0.60;0.60;;;;;;;;;;5415594;26;21676;-75
2024/04/17 01:18:27;;;;;;;0.70;0.70;;;;;;;;;;5412145;26;20243;-76
2024/04/17 01:20:54;;;;;;;0.60;0.60;;;;;;;;;;5414474;26;20299;-74
2024/04/17 01:23:25;;;;;;;0.70;0.70;;;;;;;;;;5413214;26;20282;-76
2024/04/17 01:25:53;;;;;;;0.70;0.70;;;;;;;;;;5411396;26;21080;-75
2024/04/17 01:28:21;;;;;;;0.70;0.70;;;;;;;;;;5416433;26;20621;-76
2024/04/17 01:30:46;;;;;;;0.70;0.70;;;;;;;;;;5419059;26;20320;-75
2024/04/17 01:33:14;;;;;;;0.70;0.70;;;;;;;;;;5412780;26;20260;-75
2024/04/17 01:35:40;;;;;;;0.70;0.70;;;;;;;;;;5414277;26;20286;-75
2024/04/17 01:38:08;;;;;;;0.70;0.70;;;;;;;;;;5412910;26;20236;-76
2024/04/17 01:40:33;;;;;;;0.70;0.70;;;;;;;;;;5415817;26;20244;-75
2024/04/17 01:43:04;;;;;;;0.70;0.70;;;;;;;;;;5413537;26;20307;-76
2024/04/17 01:45:32;;;;;;;0.63;0.63;;;;;;;;;;5437802;26;20281;-75
2024/04/17 01:48:00;;;;;;;0.70;0.70;;;;;;;;;;5424685;26;20243;-75
2024/04/17 01:50:26;;;;;;;0.70;0.70;;;;;;;;;;5422078;26;20251;-76
2024/04/17 01:52:54;;;;;;;0.70;0.70;;;;;;;;;;5416733;26;21053;-75
2024/04/17 01:55:20;;;;;;;0.60;0.60;;;;;;;;;;5418075;26;20302;-75
2024/04/17 01:57:48;;;;;;;0.70;0.70;;;;;;;;;;5412809;26;20972;-75
2024/04/17 02:00:16;;;;;;;0.65;0.65;;;;;;;;;;5419924;26;20252;-75
2024/04/17 02:02:44;;;;;;;0.60;0.60;;;;;;;;;;5414283;26;20326;-75
2024/04/17 02:05:09;;;;;;;0.70;0.70;;;;;;;;;;5415081;26;20881;-75
2024/04/17 02:07:37;;;;;;;0.70;0.70;;;;;;;;;;5412771;26;20240;-75
2024/04/17 02:10:03;;;;;;;0.70;0.70;;;;;;;;;;5413745;26;20910;-75
2024/04/17 02:12:31;;;;;;;0.70;0.70;;;;;;;;;;5417131;26;20274;-76
2024/04/17 02:14:57;;;;;;;0.60;0.60;;;;;;;;;;5416338;26;20796;-75
2024/04/17 02:17:27;;;;;;;0.70;0.70;;;;;;;;;;5416400;26;20251;-75
2024/04/17 02:19:53;;;;;;;0.70;0.70;;;;;;;;;;5408680;26;20293;-76
2024/04/17 02:22:21;;;;;;;0.65;0.65;;;;;;;;;;5408750;26;21013;-76
2024/04/17 02:24:46;;;;;;;0.60;0.60;;;;;;;;;;5405394;26;20256;-75
2024/04/17 02:27:14;;;;;;;0.70;0.70;;;;;;;;;;5410181;26;20247;-76
2024/04/17 02:29:40;;;;;;;0.70;0.70;;;;;;;;;;5408213;26;20255;-75
2024/04/17 02:32:08;;;;;;;0.70;0.70;;;;;;;;;;5405347;26;20281;-75
2024/04/17 02:34:37;;;;;;;0.60;0.60;;;;;;;;;;5406638;26;23220;-75
2024/04/17 02:37:05;;;;;;;0.60;0.60;;;;;;;;;;5405351;26;20240;-75
2024/04/17 02:39:30;;;;;;;0.70;0.70;;;;;;;;;;5405572;26;20355;-76
2024/04/17 02:41:58;;;;;;;0.70;0.70;;;;;;;;;;5407921;26;20744;-76
2024/04/17 02:44:24;;;;;;;0.60;0.60;;;;;;;;;;5405450;26;20244;-75
2024/04/17 02:46:52;;;;;;;0.70;0.70;;;;;;;;;;5409390;26;21538;-75
2024/04/17 02:49:17;;;;;;;0.60;0.60;;;;;;;;;;5417056;26;20306;-75
2024/04/17 02:51:48;;;;;;;0.73;0.73;;;;;;;;;;5414156;26;20563;-75
2024/04/17 02:54:13;;;;;;;0.70;0.70;;;;;;;;;;5405476;26;20254;-75
2024/04/17 02:56:41;;;;;;;0.70;0.70;;;;;;;;;;5406638;26;21046;-75
2024/04/17 02:59:07;;;;;;;0.70;0.70;;;;;;;;;;5410236;26;20625;-76
2024/04/17 03:01:35;;;;;;;0.70;0.70;;;;;;;;;;5414022;26;20243;-75
2024/04/17 03:04:00;;;;;;;0.70;0.70;;;;;;;;;;5406756;26;20303;-75
2024/04/17 03:06:28;;;;;;;0.60;0.60;;;;;;;;;;5405763;26;20314;-75
2024/04/17 03:08:56;;;;;;;0.70;0.70;;;;;;;;;;5405192;26;20326;-76
2024/04/17 03:11:24;;;;;;;0.80;0.80;;;;;;;;;;5407209;26;20303;-75
2024/04/17 03:13:50;;;;;;;0.70;0.70;;;;;;;;;;5408778;26;20246;-75
2024/04/17 03:16:18;;;;;;;0.70;0.70;;;;;;;;;;5415560;26;20790;-75
2024/04/17 03:18:44;;;;;;;0.63;0.63;;;;;;;;;;5410874;26;20294;-75
2024/04/17 03:21:12;;;;;;;0.70;0.70;;;;;;;;;;5414164;26;20831;-76
2024/04/17 03:23:37;;;;;;;0.65;0.65;;;;;;;;;;5413144;26;20262;-75
2024/04/17 03:26:08;;;;;;;0.70;0.70;;;;;;;;;;5420602;26;20239;-75
2024/04/17 03:28:33;;;;;;;0.70;0.70;;;;;;;;;;5418309;26;20384;-76
2024/04/17 03:31:01;;;;;;;0.63;0.63;;;;;;;;;;5418765;26;20251;-75
2024/04/17 03:33:27;;;;;;;0.65;0.65;;;;;;;;;;5416484;26;20259;-75
2024/04/17 03:35:58;;;;;;;0.70;0.70;;;;;;;;;;5418296;26;20240;-75
2024/04/17 03:38:26;;;;;;;0.60;0.60;;;;;;;;;;5417393;26;20692;-75
2024/04/17 03:40:55;;;;;;;0.75;0.75;;;;;;;;;;5416602;26;20791;-75
2024/04/17 03:43:26;;;;;;;0.60;0.60;;;;;;;;;;5416730;26;20741;-75
2024/04/17 03:45:54;;;;;;;0.60;0.60;;;;;;;;;;5420060;26;20281;-75
2024/04/17 03:48:22;;;;;;;0.70;0.70;;;;;;;;;;5418841;26;20749;-75
2024/04/17 03:50:47;;;;;;;0.60;0.60;;;;;;;;;;5417231;26;20294;-76
2024/04/17 03:53:15;;;;;;;0.70;0.70;;;;;;;;;;5413912;26;20603;-75
2024/04/17 03:55:41;;;;;;;0.60;0.60;;;;;;;;;;5419875;26;20255;-75
2024/04/17 03:58:09;;;;;;;0.63;0.63;;;;;;;;;;5418005;26;20669;-75
2024/04/17 04:00:37;;;;;;;0.70;0.70;;;;;;;;;;5421891;26;20255;-75
2024/04/17 04:03:05;;;;;;;0.70;0.70;;;;;;;;;;5416041;26;20964;-75
2024/04/17 04:05:30;;;;;;;0.70;0.70;;;;;;;;;;5417593;26;20248;-75
2024/04/17 04:07:58;;;;;;;0.60;0.60;;;;;;;;;;5414964;26;21056;-75
2024/04/17 04:10:23;;;;;;;0.70;0.70;;;;;;;;;;5421706;26;20289;-75
2024/04/17 04:12:51;;;;;;;0.70;0.70;;;;;;;;;;5418045;26;21275;-76
2024/04/17 04:15:17;;;;;;;0.70;0.70;;;;;;;;;;5420060;26;20281;-76
2024/04/17 04:17:49;;;;;;;0.70;0.70;;;;;;;;;;5426273;26;20244;-75
2024/04/17 04:20:15;;;;;;;0.60;0.60;;;;;;;;;;5416835;26;20259;-76
2024/04/17 04:22:43;;;;;;;0.70;0.70;;;;;;;;;;5423538;26;20330;-75
2024/04/17 04:25:08;;;;;;;0.80;0.80;;;;;;;;;;5432149;26;20930;-75
2024/04/17 04:27:36;;;;;;;0.60;0.60;;;;;;;;;;5420234;26;20283;-75
2024/04/17 04:30:02;;;;;;;0.70;0.70;;;;;;;;;;5420864;26;20764;-75
2024/04/17 04:32:30;;;;;;;0.77;0.77;;;;;;;;;;5418738;26;20237;-75
2024/04/17 04:34:58;;;;;;;0.70;0.70;;;;;;;;;;5414788;26;20282;-75
2024/04/17 04:37:28;;;;;;;0.70;0.70;;;;;;;;;;5415998;26;20797;-75
2024/04/17 04:39:54;;;;;;;0.70;0.70;;;;;;;;;;5410894;26;20951;-76
2024/04/17 04:42:22;;;;;;;5.38;3.08;;;;;;;;;;5430282;26;20294;-75
2024/04/17 04:44:48;;;;;;;0.70;0.70;;;;;;;;;;5421979;26;20282;-75
2024/04/17 04:47:17;;;;;;;0.60;0.60;;;;;;;;;;5417368;26;20614;-75
2024/04/17 04:49:44;;;;;;;0.60;0.60;;;;;;;;;;5416371;26;20294;-75
2024/04/17 04:52:14;;;;;;;0.70;0.70;;;;;;;;;;5416691;26;20624;-75
2024/04/17 04:54:40;;;;;;;0.60;0.60;;;;;;;;;;5410497;26;20298;-75
2024/04/17 04:57:08;;;;;;;0.80;0.80;;;;;;;;;;5413510;26;21455;-75
2024/04/17 04:59:33;;;;;;;0.70;0.70;;;;;;;;;;5412615;26;20263;-75
2024/04/17 05:02:01;;;;;;;0.70;0.70;;;;;;;;;;5418920;26;20287;-76
2024/04/17 05:04:27;;;;;;;0.70;0.70;;;;;;;;;;5412602;26;20285;-75
2024/04/17 05:06:55;;;;;;;0.70;0.70;;;;;;;;;;5408905;26;20916;-75
2024/04/17 05:09:23;;;;;;;0.60;0.60;;;;;;;;;;5411336;26;20323;-75
2024/04/17 05:11:51;;;;;;;0.70;0.70;;;;;;;;;;5415275;26;20343;-75
2024/04/17 05:14:16;;;;;;;0.65;0.65;;;;;;;;;;5414748;26;20583;-75
2024/04/17 05:16:45;;;;;;;0.70;0.70;;;;;;;;;;5420494;26;20277;-75
2024/04/17 05:19:10;;;;;;;0.70;0.70;;;;;;;;;;5412534;26;20243;-75
2024/04/17 05:21:38;;;;;;;0.63;0.63;;;;;;;;;;5413506;26;20239;-75
2024/04/17 05:24:04;;;;;;;0.70;0.70;;;;;;;;;;5413701;26;21429;-75
2024/04/17 05:26:35;;;;;;;0.60;0.60;;;;;;;;;;5415306;26;20566;-75
2024/04/17 05:29:00;;;;;;;0.60;0.60;;;;;;;;;;5412135;26;20275;-75
2024/04/17 05:31:29;;;;;;;0.63;0.63;;;;;;;;;;5417334;26;20239;-75
2024/04/17 05:33:55;;;;;;;0.60;0.60;;;;;;;;;;5413937;26;20243;-75
2024/04/17 05:36:23;;;;;;;0.70;0.70;;;;;;;;;;5413978;26;21027;-75
2024/04/17 05:38:48;;;;;;;0.70;0.70;;;;;;;;;;5414442;26;20755;-75
2024/04/17 05:41:16;;;;;;;0.60;0.60;;;;;;;;;;5417302;26;20308;-75
2024/04/17 05:43:44;;;;;;;0.68;0.68;;;;;;;;;;5434439;26;20291;-76
2024/04/17 05:46:12;;;;;;;0.63;0.63;;;;;;;;;;5415415;26;20240;-75
2024/04/17 05:48:38;;;;;;;0.70;0.70;;;;;;;;;;5411189;26;20292;-75
2024/04/17 05:51:06;;;;;;;0.70;0.70;;;;;;;;;;5411778;26;20307;-75
2024/04/17 05:53:32;;;;;;;0.70;0.70;;;;;;;;;;5411799;26;20295;-75
2024/04/17 05:56:00;;;;;;;0.60;0.60;;;;;;;;;;5414631;26;20243;-75
2024/04/17 05:58:25;;;;;;;0.70;0.70;;;;;;;;;;5411006;26;20239;-75
2024/04/17 06:00:56;;;;;;;0.60;0.60;;;;;;;;;;5418020;26;21101;-75
2024/04/17 06:03:21;;;;;;;0.68;0.68;;;;;;;;;;5411886;26;20294;-76
2024/04/17 06:05:49;;;;;;;0.70;0.70;;;;;;;;;;5410128;26;20243;-75
2024/04/17 06:08:14;;;;;;;0.68;0.68;;;;;;;;;;5408989;26;20672;-76
2024/04/17 06:10:42;;;;;;;0.60;0.60;;;;;;;;;;5414620;26;21191;-76
2024/04/17 06:13:08;;;;;;;0.65;0.65;;;;;;;;;;5407292;26;20804;-76
2024/04/17 06:15:36;;;;;;;0.60;0.60;;;;;;;;;;5404776;26;20258;-76
2024/04/17 06:18:05;;;;;;;0.60;0.60;;;;;;;;;;5399655;26;20631;-77
2024/04/17 06:20:34;;;;;;;0.63;0.63;;;;;;;;;;5397614;26;20562;-77
2024/04/17 06:23:00;;;;;;;0.60;0.60;;;;;;;;;;5401905;26;20329;-76
2024/04/17 06:25:28;;;;;;;0.70;0.70;;;;;;;;;;5402596;26;20313;-76
2024/04/17 06:27:54;;;;;;;0.60;0.60;;;;;;;;;;5402897;26;20305;-76
2024/04/17 06:30:22;;;;;;;0.68;0.68;;;;;;;;;;5399363;26;20674;-76
2024/04/17 06:32:48;;;;;;;0.70;0.70;;;;;;;;;;5398915;26;20589;-77
2024/04/17 06:35:18;;;;;;;0.70;0.70;;;;;;;;;;5398733;26;20318;-76
2024/04/17 06:37:44;;;;;;;1.00;1.00;;;;;;;;;;5399111;26;20618;-76
2024/04/17 06:40:12;;;;;;;0.70;0.70;;;;;;;;;;5403418;26;20243;-76
2024/04/17 06:42:37;;;;;;;1.00;1.00;;;;;;;;;;5401665;26;20302;-77
2024/04/17 06:45:06;;;;;;;0.70;0.70;;;;;;;;;;5417541;26;21079;-77
2024/04/17 06:47:31;;;;;;;0.70;0.70;;;;;;;;;;5398774;26;20309;-77
2024/04/17 06:49:59;;;;;;;0.70;0.70;;;;;;;;;;5396721;26;20311;-76
2024/04/17 06:52:27;;;;;;;0.70;0.70;;;;;;;;;;5399966;26;20309;-76
2024/04/17 06:54:55;;;;;;;0.70;0.70;;;;;;;;;;5405554;26;20286;-76
2024/04/17 06:57:21;;;;;;;0.70;0.70;;;;;;;;;;5407919;26;20248;-75
2024/04/17 06:59:49;;;;;;;0.60;0.60;;;;;;;;;;5411227;26;20279;-77
2024/04/17 07:02:14;;;;;;;0.70;0.70;;;;;;;;;;5405372;26;20342;-77
2024/04/17 07:04:42;;;;;;;0.70;0.70;;;;;;;;;;5395539;26;20314;-76
2024/04/17 07:07:08;;;;;;;0.70;0.70;;;;;;;;;;5399311;26;20668;-77
2024/04/17 07:09:38;;;;;;;0.70;0.70;;;;;;;;;;5398962;26;20976;-76
2024/04/17 07:12:05;;;;;;;0.70;0.70;;;;;;;;;;5399135;26;20668;-76
2024/04/17 07:14:34;;;;;;;0.65;0.65;;;;;;;;;;5399258;26;20339;-77
2024/04/17 07:16:59;;;;;;;0.60;0.60;;;;;;;;;;5401788;26;20744;-77
2024/04/17 07:19:27;;;;;;;0.70;0.70;;;;;;;;;;5398398;26;20286;-76
2024/04/17 07:21:53;;;;;;;0.70;0.70;;;;;;;;;;5396130;26;22556;-76
2024/04/17 07:24:23;;;;;;;0.65;0.65;;;;;;;;;;5396666;26;20306;-77
2024/04/17 07:26:51;;;;;;;0.70;0.70;;;;;;;;;;5398688;26;20256;-77
2024/04/17 07:29:19;;;;;;;0.70;0.70;;;;;;;;;;5397855;26;20753;-77
2024/04/17 07:31:45;;;;;;;0.60;0.60;;;;;;;;;;5396939;26;20320;-77
2024/04/17 07:34:13;;;;;;;0.60;0.60;;;;;;;;;;5395148;26;20765;-76
2024/04/17 07:36:39;;;;;;;0.70;0.70;;;;;;;;;;5392033;26;20846;-76
2024/04/17 07:39:07;;;;;;;0.60;0.60;;;;;;;;;;5398520;26;20249;-76
2024/04/17 07:41:32;;;;;;;0.70;0.70;;;;;;;;;;5395563;26;20318;-76
2024/04/17 07:44:03;;;;;;;0.70;0.70;;;;;;;;;;5410517;26;20286;-76
2024/04/17 07:46:38;;;;;;;0.60;0.60;;;;;;;;;;5395496;26;20332;-77
2024/04/17 07:49:07;;;;;;;0.60;0.60;;;;;;;;;;5403344;26;20384;-76
2024/04/17 07:51:33;;;;;;;0.60;0.60;;;;;;;;;;5397833;26;20239;-77
2024/04/17 07:54:01;;;;;;;0.70;0.70;;;;;;;;;;5393916;26;20581;-76
2024/04/17 07:56:26;;;;;;;0.68;0.68;;;;;;;;;;5399077;26;20239;-76
2024/04/17 07:58:54;;;;;;;0.60;0.60;;;;;;;;;;5395328;26;20239;-78
2024/04/17 08:01:22;;;;;;;0.60;0.60;;;;;;;;;;5399955;26;20347;-77
2024/04/17 08:03:50;;;;;;;0.60;0.60;;;;;;;;;;5396231;26;20248;-76
2024/04/17 08:06:20;;;;;;;0.60;0.60;;;;;;;;;;5395853;26;21792;-76
2024/04/17 08:08:48;;;;;;;0.60;0.60;;;;;;;;;;5420102;26;20252;-76
2024/04/17 08:11:13;;;;;;;0.70;0.70;;;;;;;;;;5422264;26;20653;-76
2024/04/17 08:13:42;;;;;;;0.70;0.70;;;;;;;;;;5420366;26;20251;-76
2024/04/17 08:16:07;;;;;;;0.70;0.70;;;;;;;;;;5421750;26;20338;-76
2024/04/17 08:18:38;;;;;;;0.80;0.80;;;;;;;;;;5422220;26;20394;-76
2024/04/17 08:21:04;;;;;;;0.70;0.70;;;;;;;;;;5420740;26;20304;-76
2024/04/17 08:23:32;;;;;;;0.70;0.70;;;;;;;;;;5423759;26;20773;-76
2024/04/17 08:25:57;;;;;;;0.70;0.70;;;;;;;;;;5425159;26;20278;-76
2024/04/17 08:28:25;;;;;;;0.80;0.80;;;;;;;;;;5423777;26;21075;-76
2024/04/17 08:30:52;;;;;;;0.70;0.70;;;;;;;;;;5425590;26;20248;-76
2024/04/17 08:33:20;;;;;;;0.70;0.70;;;;;;;;;;5424350;26;20406;-76
2024/04/17 08:35:48;;;;;;;0.60;0.60;;;;;;;;;;5424330;26;21509;-77
2024/04/17 08:38:16;;;;;;;0.70;0.70;;;;;;;;;;5424103;26;20338;-76
2024/04/17 08:40:42;;;;;;;0.80;0.80;;;;;;;;;;5423799;26;20315;-76
2024/04/17 08:43:13;;;;;;;0.70;0.70;;;;;;;;;;5422290;26;20311;-76
2024/04/17 08:45:38;;;;;;;0.70;0.70;;;;;;;;;;5430587;26;20691;-76
2024/04/17 08:48:08;;;;;;;0.70;0.70;;;;;;;;;;5430493;26;20247;-76
2024/04/17 08:50:35;;;;;;;0.65;0.65;;;;;;;;;;5423422;26;20244;-76
2024/04/17 08:53:06;;;;;;;0.60;0.60;;;;;;;;;;5422728;26;20357;-76
2024/04/17 08:55:32;;;;;;;0.70;0.70;;;;;;;;;;5425342;26;20828;-76
2024/04/17 08:58:01;;;;;;;0.70;0.70;;;;;;;;;;5425410;26;20382;-77
2024/04/17 09:00:27;;;;;;;0.70;0.70;;;;;;;;;;5425530;26;20403;-76
2024/04/17 09:02:59;;;;;;;0.70;0.70;;;;;;;;;;5425751;26;20862;-76
2024/04/17 09:05:25;;;;;;;0.70;0.70;;;;;;;;;;5425761;26;20306;-76
2024/04/17 09:07:54;;;;;;;0.70;0.70;;;;;;;;;;5415076;26;20439;-77
2024/04/17 09:10:22;;;;;;;0.60;0.60;;;;;;;;;;5400646;26;20299;-76
2024/04/17 09:12:50;;;;;;;0.60;0.60;;;;;;;;;;5393107;26;21098;-76
2024/04/17 09:15:16;;;;;;;0.70;0.70;;;;;;;;;;5401187;26;20617;-76
2024/04/17 09:17:44;;;;;;;0.60;0.60;;;;;;;;;;5393154;26;20874;-76
2024/04/17 09:20:10;;;;;;;0.70;0.70;;;;;;;;;;5398868;26;20323;-76
2024/04/17 09:22:38;;;;;;;0.68;0.68;;;;;;;;;;5400150;26;20565;-76
2024/04/17 09:25:11;;;;;;;0.70;0.70;;;;;;;;;;5398959;26;20322;-76
2024/04/17 09:27:41;;;;;;;0.70;0.70;;;;;;;;;;5399682;26;20333;-76
2024/04/17 09:30:07;;;;;;;0.68;0.68;;;;;;;;;;5398825;26;21294;-76
2024/04/17 09:32:35;;;;;;;0.70;0.70;;;;;;;;;;5394415;26;21069;-77
2024/04/17 09:35:00;;;;;;;0.70;0.70;;;;;;;;;;5401234;26;21348;-77
2024/04/17 09:37:28;;;;;;;0.70;0.70;;;;;;;;;;5395291;26;20248;-77
2024/04/17 09:40:01;;;;;;;0.70;0.70;;;;;;;;;;5399674;26;20286;-76
2024/04/17 09:42:32;;;;;;;0.70;0.70;;;;;;;;;;5401526;26;20307;-76
2024/04/17 09:45:00;;;;;;;0.70;0.70;;;;;;;;;;5414132;26;20796;-77
2024/04/17 09:47:30;;;;;;;0.60;0.60;;;;;;;;;;5401114;26;20251;-77
2024/04/17 09:49:56;;;;;;;0.60;0.60;;;;;;;;;;5392187;26;20948;-77
2024/04/17 09:52:24;;;;;;;0.60;0.60;;;;;;;;;;5396443;26;20683;-76
2024/04/17 09:54:50;;;;;;;0.68;0.68;;;;;;;;;;5397348;26;20243;-77
2024/04/17 09:57:18;;;;;;;0.70;0.70;;;;;;;;;;5395421;26;20387;-76
2024/04/17 09:59:45;;;;;;;0.70;0.70;;;;;;;;;;5392323;26;20961;-76
2024/04/17 10:02:16;;;;;;;0.80;0.80;;;;;;;;;;5404775;26;20262;-77
2024/04/17 10:04:42;;;;;;;0.70;0.70;;;;;;;;;;5399472;26;20298;-77
2024/04/17 10:07:11;;;;;;;0.60;0.60;;;;;;;;;;5394085;26;20832;-76
2024/04/17 10:09:39;;;;;;;0.70;0.70;;;;;;;;;;5395217;26;20800;-76
2024/04/17 10:12:09;;;;;;;0.70;0.70;;;;;;;;;;5398778;26;20377;-76
2024/04/17 10:14:34;;;;;;;0.70;0.70;;;;;;;;;;5398188;26;20548;-76
2024/04/17 10:17:02;;;;;;;0.70;0.70;;;;;;;;;;5399173;26;21536;-77
2024/04/17 10:19:33;;;;;;;0.70;0.70;;;;;;;;;;5392325;26;20294;-77
2024/04/17 10:21:58;;;;;;;0.70;0.70;;;;;;;;;;5392877;26;20532;-77
2024/04/17 10:24:26;;;;;;;0.70;0.70;;;;;;;;;;5384198;26;20247;-77
2024/04/17 10:26:53;;;;;;;0.70;0.70;;;;;;;;;;5395390;26;22118;-76
2024/04/17 10:29:24;;;;;;;0.75;0.75;;;;;;;;;;5392298;26;20251;-76
2024/04/17 10:32:00;;;;;;;0.70;0.70;;;;;;;;;;5391967;26;20322;-77
2024/04/17 10:34:28;;;;;;;0.63;0.63;;;;;;;;;;5393064;26;20600;-77
2024/04/17 10:36:58;;;;;;;0.80;0.80;;;;;;;;;;5389076;26;20377;-77
2024/04/17 10:39:27;;;;;;;0.60;0.60;;;;;;;;;;5389148;26;20740;-77
2024/04/17 10:41:53;;;;;;;0.80;0.80;;;;;;;;;;5391373;26;20285;-76
2024/04/17 10:44:21;;;;;;;0.70;0.70;;;;;;;;;;5386652;26;20298;-77
2024/04/17 10:46:47;;;;;;;0.60;0.60;;;;;;;;;;5400725;26;20298;-77
2024/04/17 10:49:17;;;;;;;0.70;0.70;;;;;;;;;;5397548;26;21830;-77
2024/04/17 10:51:43;;;;;;;0.70;0.70;;;;;;;;;;5388140;26;20562;-77
2024/04/17 10:54:14;;;;;;;0.70;0.70;;;;;;;;;;5389454;26;20289;-76
2024/04/17 10:56:39;;;;;;;0.70;0.70;;;;;;;;;;5390765;26;21168;-77
2024/04/17 10:59:08;;;;;;;0.70;0.70;;;;;;;;;;5391456;26;20293;-77
2024/04/17 11:01:33;;;;;;;0.70;0.70;;;;;;;;;;5391837;26;20251;-76
2024/04/17 11:04:01;;;;;;;0.80;0.80;;;;;;;;;;5391008;26;20619;-76
2024/04/17 11:06:27;;;;;;;0.70;0.70;;;;;;;;;;5386917;26;20369;-77
2024/04/17 11:08:55;;;;;;;0.70;0.70;;;;;;;;;;5386894;26;20323;-77
2024/04/17 11:11:24;;;;;;;0.65;0.65;;;;;;;;;;5392389;26;20255;-76
2024/04/17 11:13:52;;;;;;;0.70;0.70;;;;;;;;;;5391330;26;20720;-76
2024/04/17 11:16:17;;;;;;;0.80;0.80;;;;;;;;;;5392512;26;20277;-76
2024/04/17 11:18:45;;;;;;;0.77;0.77;;;;;;;;;;5389731;26;20859;-77
2024/04/17 11:21:11;;;;;;;0.80;0.80;;;;;;;;;;5389641;26;20293;-77
2024/04/17 11:23:40;;;;;;;0.70;0.70;;;;;;;;;;5386408;26;20327;-78
2024/04/17 11:26:05;;;;;;;0.70;0.70;;;;;;;;;;5394260;26;20803;-77
2024/04/17 11:28:36;;;;;;;0.75;0.75;;;;;;;;;;5385684;26;20349;-77
2024/04/17 11:31:02;;;;;;;0.80;0.80;;;;;;;;;;5395151;26;20769;-76
2024/04/17 11:33:30;;;;;;;0.80;0.80;;;;;;;;;;5387662;26;20239;-76
2024/04/17 11:36:07;;;;;;;0.70;0.70;;;;;;;;;;5385125;26;20252;-77
2024/04/17 11:38:35;;;;;;;0.70;0.70;;;;;;;;;;5392814;26;20661;-76
2024/04/17 11:41:01;;;;;;;0.70;0.70;;;;;;;;;;5391832;26;21510;-77
2024/04/17 11:43:29;;;;;;;0.70;0.70;;;;;;;;;;5391253;26;20568;-76
2024/04/17 11:45:57;;;;;;;0.70;0.70;;;;;;;;;;5394675;26;20881;-77
2024/04/17 11:48:25;;;;;;;0.70;0.70;;;;;;;;;;5414302;26;20665;-77
2024/04/17 11:50:50;;;;;;;0.70;0.70;;;;;;;;;;5391310;26;20298;-77
2024/04/17 11:53:18;;;;;;;0.70;0.70;;;;;;;;;;5398186;26;20370;-76
2024/04/17 11:55:44;;;;;;;0.70;0.70;;;;;;;;;;5402729;26;20240;-77
2024/04/17 11:58:12;;;;;;;0.73;0.73;;;;;;;;;;5396001;26;20287;-76
2024/04/17 12:00:38;;;;;;;0.60;0.60;;;;;;;;;;5405738;26;20286;-76
2024/04/17 12:03:08;;;;;;;0.65;0.65;;;;;;;;;;5400558;26;21127;-77
2024/04/17 12:05:34;;;;;;;0.70;0.70;;;;;;;;;;5403829;26;20287;-76
2024/04/17 12:08:02;;;;;;;0.70;0.70;;;;;;;;;;5396197;26;20306;-77
2024/04/17 12:10:27;;;;;;;0.70;0.70;;;;;;;;;;5403482;26;20299;-76
2024/04/17 12:12:55;;;;;;;0.68;0.68;;;;;;;;;;5403957;26;20818;-77
2024/04/17 12:15:21;;;;;;;0.80;0.80;;;;;;;;;;5404300;26;20705;-76
2024/04/17 12:17:49;;;;;;;0.60;0.60;;;;;;;;;;5402776;26;20291;-76
2024/04/17 12:20:19;;;;;;;0.70;0.70;;;;;;;;;;5403923;26;20370;-76
2024/04/17 12:22:45;;;;;;;0.77;0.77;;;;;;;;;;5402482;26;20311;-76
2024/04/17 12:27:57;;;;;;;0.60;0.60;;;;;;;;;;5404792;26;21092;-76
2024/04/17 12:30:25;;;;;;;0.70;0.70;;;;;;;;;;5406191;26;20259;-76
2024/04/17 12:32:53;;;;;;;0.60;0.60;;;;;;;;;;5399782;26;20776;-76
2024/04/17 12:35:24;;;;;;;0.80;0.80;;;;;;;;;;5402831;26;20930;-76
2024/04/17 12:37:52;;;;;;;0.70;0.70;;;;;;;;;;5397477;26;20292;-76
2024/04/17 12:40:20;;;;;;;0.70;0.70;;;;;;;;;;5403399;26;20280;-76
2024/04/17 12:42:45;;;;;;;0.70;0.70;;;;;;;;;;5399767;26;20796;-77
2024/04/17 12:45:14;;;;;;;0.75;0.75;;;;;;;;;;5403157;26;20301;-76
2024/04/17 12:47:42;;;;;;;0.70;0.70;;;;;;;;;;5411729;26;20728;-76
2024/04/17 12:50:10;;;;;;;0.60;0.60;;;;;;;;;;5400147;26;20251;-76
2024/04/17 12:52:41;;;;;;;0.70;0.70;;;;;;;;;;5410108;26;20296;-77
2024/04/17 12:55:09;;;;;;;0.70;0.70;;;;;;;;;;5397752;26;20240;-77
2024/04/17 12:57:34;;;;;;;0.60;0.60;;;;;;;;;;5403865;26;20809;-77
2024/04/17 13:00:03;;;;;;;0.73;0.73;;;;;;;;;;5402760;26;23450;-76
2024/04/17 13:02:28;;;;;;;0.70;0.70;;;;;;;;;;5404752;26;21706;-77
2024/04/17 13:04:56;;;;;;;0.70;0.70;;;;;;;;;;5403156;26;20244;-76
2024/04/17 13:07:24;;;;;;;0.70;0.70;;;;;;;;;;5387708;26;20318;-76
2024/04/17 13:09:52;;;;;;;0.70;0.70;;;;;;;;;;5406730;26;20291;-76
2024/04/17 13:12:20;;;;;;;0.70;0.70;;;;;;;;;;5416719;26;20283;-76
2024/04/17 13:14:47;;;;;;;0.70;0.70;;;;;;;;;;5404516;26;21109;-77
2024/04/17 13:17:15;;;;;;;0.70;0.70;;;;;;;;;;5406998;26;20278;-76
2024/04/17 13:19:41;;;;;;;0.80;0.80;;;;;;;;;;5410393;26;20281;-75
2024/04/17 13:22:09;;;;;;;0.70;0.70;;;;;;;;;;5403989;26;20243;-77
2024/04/17 13:24:34;;;;;;;0.80;0.80;;;;;;;;;;5407624;26;20590;-76
2024/04/17 13:27:05;;;;;;;0.70;0.70;;;;;;;;;;5405488;26;20278;-77
2024/04/17 13:29:32;;;;;;;0.90;0.90;;;;;;;;;;5399813;26;20319;-77
2024/04/17 13:32:00;;;;;;;0.70;0.70;;;;;;;;;;5404843;26;20364;-76
2024/04/17 13:34:26;;;;;;;0.70;0.70;;;;;;;;;;5401582;26;21773;-77
2024/04/17 13:36:54;;;;;;;0.70;0.70;;;;;;;;;;5399169;26;20303;-77
2024/04/17 13:39:20;;;;;;;0.70;0.70;;;;;;;;;;5404412;26;20786;-79
2024/04/17 13:41:48;;;;;;;0.70;0.70;;;;;;;;;;5404448;26;20248;-76
2024/04/17 13:44:16;;;;;;;0.70;0.70;;;;;;;;;;5403103;26;20293;-77
2024/04/17 13:46:44;;;;;;;0.70;0.70;;;;;;;;;;5404078;26;20300;-77
2024/04/17 13:49:09;;;;;;;0.70;0.70;;;;;;;;;;5401317;26;20808;-76
2024/04/17 13:51:37;;;;;;;0.70;0.70;;;;;;;;;;5403946;26;20878;-77
2024/04/17 13:54:03;;;;;;;0.70;0.70;;;;;;;;;;5400468;26;20311;-77
2024/04/17 13:56:31;;;;;;;0.65;0.65;;;;;;;;;;5403587;26;20373;-76
2024/04/17 13:58:57;;;;;;;0.70;0.70;;;;;;;;;;5399551;26;20259;-76
2024/04/17 14:01:27;;;;;;;0.70;0.70;;;;;;;;;;5407456;26;20922;-76
2024/04/17 14:03:53;;;;;;;0.70;0.70;;;;;;;;;;5405340;26;21081;-76
2024/04/17 14:06:21;;;;;;;0.70;0.70;;;;;;;;;;5396635;26;20291;-76
2024/04/17 14:08:46;;;;;;;0.80;0.80;;;;;;;;;;5399349;26;20289;-76
2024/04/17 14:11:14;;;;;;;0.70;0.70;;;;;;;;;;5406871;26;20303;-78
2024/04/17 14:13:39;;;;;;;0.70;0.70;;;;;;;;;;5408100;26;20262;-77
2024/04/17 14:16:08;;;;;;;0.80;0.80;;;;;;;;;;5401715;26;20277;-76
2024/04/17 14:18:36;;;;;;;0.70;0.70;;;;;;;;;;5399592;26;20577;-77
2024/04/17 14:21:06;;;;;;;0.70;0.70;;;;;;;;;;5395909;26;21153;-79
2024/04/17 14:23:32;;;;;;;0.70;0.70;;;;;;;;;;5400429;26;20627;-77
2024/04/17 14:26:00;;;;;;;0.70;0.70;;;;;;;;;;5403348;26;20372;-76
2024/04/17 14:28:27;;;;;;;0.60;0.60;;;;;;;;;;5405625;26;20320;-77
2024/04/17 14:30:58;;;;;;;0.60;0.60;;;;;;;;;;5414587;26;20251;-75
2024/04/17 14:33:34;;;;;;;0.80;0.80;;;;;;;;;;5409547;26;20372;-76
2024/04/17 14:36:07;;;;;;;0.70;0.70;;;;;;;;;;5405908;26;20250;-77
2024/04/17 14:38:33;;;;;;;0.70;0.70;;;;;;;;;;5402653;26;20263;-77
2024/04/17 14:41:02;;;;;;;0.70;0.70;;;;;;;;;;5402180;26;20248;-78
2024/04/17 14:43:28;;;;;;;0.70;0.70;;;;;;;;;;5423026;26;21029;-77
2024/04/17 14:45:57;;;;;;;9.25;2.25;;;;;;;;;;5404820;26;20358;-77
2024/04/17 14:48:23;;;;;;;0.80;0.80;;;;;;;;;;5401262;26;20302;-77